sensor_id;sensor_type;location;lat;lon;timestamp;temperature;humidity
75824;DHT22;64457;51.976;9.834;2023-08-06T00:00:03;20.20;99.90
75824;DHT22;64457;51.976;9.834;2023-08-06T00:02:32;20.30;99.90
75824;DHT22;64457;51.976;9.834;2023-08-06T00:05:00;19.90;99.90
75824;DHT22;64457;51.976;9.834;2023-08-06T00:07:28;19.80;99.90
75824;DHT22;64457;51.976;9.834;2023-08-06T00:09:58;19.70;99.90
75824;DHT22;64457;51.976;9.834;2023-08-06T00:12:25;19.60;99.90
75824;DHT22;64457;51.976;9.834;2023-08-06T00:14:53;19.80;99.90
75824;DHT22;64457;51.976;9.834;2023-08-06T00:17:21;19.90;99.90
75824;DHT22;64457;51.976;9.834;2023-08-06T00:19:48;19.90;99.90
75824;DHT22;64457;51.976;9.834;2023-08-06T00:22:16;20.00;99.90
75824;DHT22;64457;51.976;9.834;2023-08-06T00:24:44;20.10;99.90
75824;DHT22;64457;51.976;9.834;2023-08-06T00:27:15;19.90;99.90
75824;DHT22;64457;51.976;9.834;2023-08-06T00:29:42;19.70;99.90
75824;DHT22;64457;51.976;9.834;2023-08-06T00:32:10;19.60;99.90
75824;DHT22;64457;51.976;9.834;2023-08-06T00:34:39;19.70;99.90
75824;DHT22;64457;51.976;9.834;2023-08-06T00:37:07;19.70;99.90
75824;DHT22;64457;51.976;9.834;2023-08-06T00:39:34;19.90;99.90
75824;DHT22;64457;51.976;9.834;2023-08-06T00:42:03;20.00;99.90
75824;DHT22;64457;51.976;9.834;2023-08-06T00:44:33;20.10;99.90
75824;DHT22;64457;51.976;9.834;2023-08-06T00:47:01;19.80;99.90
75824;DHT22;64457;51.976;9.834;2023-08-06T00:49:28;19.30;99.90
75824;DHT22;64457;51.976;9.834;2023-08-06T00:51:57;18.90;99.90
75824;DHT22;64457;51.976;9.834;2023-08-06T00:54:25;19.00;99.90
75824;DHT22;64457;51.976;9.834;2023-08-06T00:56:56;19.20;99.90
75824;DHT22;64457;51.976;9.834;2023-08-06T00:59:24;19.30;99.90
75824;DHT22;64457;51.976;9.834;2023-08-06T01:01:54;19.40;99.90
75824;DHT22;64457;51.976;9.834;2023-08-06T01:04:22;19.50;99.90
75824;DHT22;64457;51.976;9.834;2023-08-06T01:06:55;19.40;99.90
75824;DHT22;64457;51.976;9.834;2023-08-06T01:09:34;19.10;99.90
75824;DHT22;64457;51.976;9.834;2023-08-06T01:12:09;18.50;99.90
75824;DHT22;64457;51.976;9.834;2023-08-06T01:14:50;18.10;99.90
75824;DHT22;64457;51.976;9.834;2023-08-06T01:17:27;17.90;99.90
75824;DHT22;64457;51.976;9.834;2023-08-06T01:19:55;17.90;99.90
75824;DHT22;64457;51.976;9.834;2023-08-06T01:22:25;18.00;99.90
75824;DHT22;64457;51.976;9.834;2023-08-06T01:24:53;18.30;99.90
75824;DHT22;64457;51.976;9.834;2023-08-06T01:27:28;18.50;99.90
75824;DHT22;64457;51.976;9.834;2023-08-06T01:30:03;18.80;99.90
75824;DHT22;64457;51.976;9.834;2023-08-06T01:32:35;19.00;99.90
75824;DHT22;64457;51.976;9.834;2023-08-06T01:35:04;19.10;99.90
75824;DHT22;64457;51.976;9.834;2023-08-06T01:37:34;19.30;99.90
75824;DHT22;64457;51.976;9.834;2023-08-06T01:40:06;19.40;99.90
75824;DHT22;64457;51.976;9.834;2023-08-06T01:42:34;19.50;99.90
75824;DHT22;64457;51.976;9.834;2023-08-06T01:45:02;19.70;99.90
75824;DHT22;64457;51.976;9.834;2023-08-06T01:47:30;19.70;99.90
75824;DHT22;64457;51.976;9.834;2023-08-06T01:49:58;19.80;99.90
75824;DHT22;64457;51.976;9.834;2023-08-06T01:52:26;19.80;99.90
75824;DHT22;64457;51.976;9.834;2023-08-06T01:54:55;19.80;99.90
75824;DHT22;64457;51.976;9.834;2023-08-06T01:57:24;19.70;99.90
75824;DHT22;64457;51.976;9.834;2023-08-06T01:59:51;19.40;99.90
75824;DHT22;64457;51.976;9.834;2023-08-06T02:02:18;18.90;99.90
75824;DHT22;64457;51.976;9.834;2023-08-06T02:04:46;18.90;99.90
75824;DHT22;64457;51.976;9.834;2023-08-06T02:07:14;18.80;99.90
75824;DHT22;64457;51.976;9.834;2023-08-06T02:09:41;18.90;99.90
75824;DHT22;64457;51.976;9.834;2023-08-06T02:12:11;19.00;99.90
75824;DHT22;64457;51.976;9.834;2023-08-06T02:14:38;18.90;99.90
75824;DHT22;64457;51.976;9.834;2023-08-06T02:17:06;18.90;99.90
75824;DHT22;64457;51.976;9.834;2023-08-06T02:19:33;19.00;99.90
75824;DHT22;64457;51.976;9.834;2023-08-06T02:22:01;19.20;99.90
75824;DHT22;64457;51.976;9.834;2023-08-06T02:24:29;19.40;99.90
75824;DHT22;64457;51.976;9.834;2023-08-06T02:26:56;19.50;99.90
75824;DHT22;64457;51.976;9.834;2023-08-06T02:29:25;19.60;99.90
75824;DHT22;64457;51.976;9.834;2023-08-06T02:31:52;19.60;99.90
75824;DHT22;64457;51.976;9.834;2023-08-06T02:34:20;19.70;99.90
75824;DHT22;64457;51.976;9.834;2023-08-06T02:36:47;19.70;99.90
75824;DHT22;64457;51.976;9.834;2023-08-06T02:39:14;19.70;99.90
75824;DHT22;64457;51.976;9.834;2023-08-06T02:41:42;19.70;99.90
75824;DHT22;64457;51.976;9.834;2023-08-06T02:44:10;19.70;99.90
75824;DHT22;64457;51.976;9.834;2023-08-06T02:46:39;19.70;99.90
75824;DHT22;64457;51.976;9.834;2023-08-06T02:49:07;19.80;99.90
75824;DHT22;64457;51.976;9.834;2023-08-06T02:51:35;19.70;99.90
75824;DHT22;64457;51.976;9.834;2023-08-06T02:54:03;19.70;99.90
75824;DHT22;64457;51.976;9.834;2023-08-06T02:56:30;19.70;99.90
75824;DHT22;64457;51.976;9.834;2023-08-06T02:58:58;19.60;99.90
75824;DHT22;64457;51.976;9.834;2023-08-06T03:01:25;19.50;99.90
75824;DHT22;64457;51.976;9.834;2023-08-06T03:03:56;19.40;99.90
75824;DHT22;64457;51.976;9.834;2023-08-06T03:06:24;19.40;99.90
75824;DHT22;64457;51.976;9.834;2023-08-06T03:08:51;19.20;99.90
75824;DHT22;64457;51.976;9.834;2023-08-06T03:11:18;18.70;99.90
75824;DHT22;64457;51.976;9.834;2023-08-06T03:13:47;18.60;99.90
75824;DHT22;64457;51.976;9.834;2023-08-06T03:16:15;18.60;99.90
75824;DHT22;64457;51.976;9.834;2023-08-06T03:18:43;18.70;99.90
75824;DHT22;64457;51.976;9.834;2023-08-06T03:21:12;18.90;99.90
75824;DHT22;64457;51.976;9.834;2023-08-06T03:23:41;19.10;99.90
75824;DHT22;64457;51.976;9.834;2023-08-06T03:26:09;19.10;99.90
75824;DHT22;64457;51.976;9.834;2023-08-06T03:28:36;18.80;99.90
75824;DHT22;64457;51.976;9.834;2023-08-06T03:31:04;18.30;99.90
75824;DHT22;64457;51.976;9.834;2023-08-06T03:33:31;18.10;99.90
75824;DHT22;64457;51.976;9.834;2023-08-06T03:35:59;18.30;99.90
75824;DHT22;64457;51.976;9.834;2023-08-06T03:38:29;18.50;99.90
75824;DHT22;64457;51.976;9.834;2023-08-06T03:40:57;18.70;99.90
75824;DHT22;64457;51.976;9.834;2023-08-06T03:43:24;19.00;99.90
75824;DHT22;64457;51.976;9.834;2023-08-06T03:45:53;19.20;99.90
75824;DHT22;64457;51.976;9.834;2023-08-06T03:48:23;19.30;99.90
75824;DHT22;64457;51.976;9.834;2023-08-06T03:50:50;19.40;99.90
75824;DHT22;64457;51.976;9.834;2023-08-06T03:53:18;19.50;99.90
75824;DHT22;64457;51.976;9.834;2023-08-06T03:55:48;19.50;99.90
75824;DHT22;64457;51.976;9.834;2023-08-06T03:58:15;19.60;99.90
75824;DHT22;64457;51.976;9.834;2023-08-06T04:00:42;19.50;99.90
75824;DHT22;64457;51.976;9.834;2023-08-06T04:03:10;19.50;99.90
75824;DHT22;64457;51.976;9.834;2023-08-06T04:05:37;19.40;99.90
75824;DHT22;64457;51.976;9.834;2023-08-06T04:08:05;19.20;99.90
75824;DHT22;64457;51.976;9.834;2023-08-06T04:10:32;19.20;99.90
75824;DHT22;64457;51.976;9.834;2023-08-06T04:13:02;19.10;99.90
75824;DHT22;64457;51.976;9.834;2023-08-06T04:15:29;18.70;99.90
75824;DHT22;64457;51.976;9.834;2023-08-06T04:18:01;18.40;99.90
75824;DHT22;64457;51.976;9.834;2023-08-06T04:20:30;18.10;99.90
75824;DHT22;64457;51.976;9.834;2023-08-06T04:22:57;17.80;99.90
75824;DHT22;64457;51.976;9.834;2023-08-06T04:25:25;17.70;99.90
75824;DHT22;64457;51.976;9.834;2023-08-06T04:27:53;17.40;99.90
75824;DHT22;64457;51.976;9.834;2023-08-06T04:30:22;17.50;99.90
75824;DHT22;64457;51.976;9.834;2023-08-06T04:32:50;17.90;99.90
75824;DHT22;64457;51.976;9.834;2023-08-06T04:35:18;18.10;99.90
75824;DHT22;64457;51.976;9.834;2023-08-06T04:37:45;18.40;99.90
75824;DHT22;64457;51.976;9.834;2023-08-06T04:40:13;18.60;99.90
75824;DHT22;64457;51.976;9.834;2023-08-06T04:42:40;18.80;99.90
75824;DHT22;64457;51.976;9.834;2023-08-06T04:45:08;18.90;99.90
75824;DHT22;64457;51.976;9.834;2023-08-06T04:47:41;19.10;99.90
75824;DHT22;64457;51.976;9.834;2023-08-06T04:50:09;19.10;99.90
75824;DHT22;64457;51.976;9.834;2023-08-06T04:52:37;19.20;99.90
75824;DHT22;64457;51.976;9.834;2023-08-06T04:55:06;19.30;99.90
75824;DHT22;64457;51.976;9.834;2023-08-06T04:57:33;19.40;99.90
75824;DHT22;64457;51.976;9.834;2023-08-06T05:00:01;19.40;99.90
75824;DHT22;64457;51.976;9.834;2023-08-06T05:02:30;19.20;99.90
75824;DHT22;64457;51.976;9.834;2023-08-06T05:05:00;19.20;99.90
75824;DHT22;64457;51.976;9.834;2023-08-06T05:07:29;19.30;99.90
75824;DHT22;64457;51.976;9.834;2023-08-06T05:09:57;19.40;99.90
75824;DHT22;64457;51.976;9.834;2023-08-06T05:12:26;19.50;99.90
75824;DHT22;64457;51.976;9.834;2023-08-06T05:14:54;19.70;99.90
75824;DHT22;64457;51.976;9.834;2023-08-06T05:17:22;19.80;99.90
75824;DHT22;64457;51.976;9.834;2023-08-06T05:19:50;19.80;99.90
75824;DHT22;64457;51.976;9.834;2023-08-06T05:22:19;19.40;99.90
75824;DHT22;64457;51.976;9.834;2023-08-06T05:24:47;18.90;99.90
75824;DHT22;64457;51.976;9.834;2023-08-06T05:27:15;19.00;99.90
75824;DHT22;64457;51.976;9.834;2023-08-06T05:29:45;18.70;99.90
75824;DHT22;64457;51.976;9.834;2023-08-06T05:32:12;18.90;99.90
75824;DHT22;64457;51.976;9.834;2023-08-06T05:34:40;19.10;99.90
75824;DHT22;64457;51.976;9.834;2023-08-06T05:37:07;19.40;99.90
75824;DHT22;64457;51.976;9.834;2023-08-06T05:39:36;19.70;99.90
75824;DHT22;64457;51.976;9.834;2023-08-06T05:42:05;20.00;99.90
75824;DHT22;64457;51.976;9.834;2023-08-06T05:44:34;20.30;99.90
75824;DHT22;64457;51.976;9.834;2023-08-06T05:47:01;20.30;99.90
75824;DHT22;64457;51.976;9.834;2023-08-06T05:49:29;20.40;99.90
75824;DHT22;64457;51.976;9.834;2023-08-06T05:51:59;20.60;99.90
75824;DHT22;64457;51.976;9.834;2023-08-06T05:54:28;22.00;99.90
75824;DHT22;64457;51.976;9.834;2023-08-06T05:56:58;23.60;97.80
75824;DHT22;64457;51.976;9.834;2023-08-06T05:59:25;25.10;94.50
75824;DHT22;64457;51.976;9.834;2023-08-06T06:01:54;25.50;93.90
75824;DHT22;64457;51.976;9.834;2023-08-06T06:04:21;25.50;93.40
75824;DHT22;64457;51.976;9.834;2023-08-06T06:06:48;25.40;93.30
75824;DHT22;64457;51.976;9.834;2023-08-06T06:09:16;25.50;93.10
75824;DHT22;64457;51.976;9.834;2023-08-06T06:11:43;25.60;92.50
75824;DHT22;64457;51.976;9.834;2023-08-06T06:14:12;26.10;92.40
75824;DHT22;64457;51.976;9.834;2023-08-06T06:16:40;26.70;90.20
75824;DHT22;64457;51.976;9.834;2023-08-06T06:19:08;27.30;88.80
75824;DHT22;64457;51.976;9.834;2023-08-06T06:21:35;27.60;86.40
75824;DHT22;64457;51.976;9.834;2023-08-06T06:24:04;27.60;85.40
75824;DHT22;64457;51.976;9.834;2023-08-06T06:26:31;26.30;85.20
75824;DHT22;64457;51.976;9.834;2023-08-06T06:28:59;25.40;89.90
75824;DHT22;64457;51.976;9.834;2023-08-06T06:31:28;24.20;90.60
75824;DHT22;64457;51.976;9.834;2023-08-06T06:33:55;23.30;92.70
75824;DHT22;64457;51.976;9.834;2023-08-06T06:36:23;24.00;93.30
75824;DHT22;64457;51.976;9.834;2023-08-06T06:38:51;25.90;91.00
75824;DHT22;64457;51.976;9.834;2023-08-06T06:41:18;28.00;89.20
75824;DHT22;64457;51.976;9.834;2023-08-06T06:43:47;30.30;79.50
75824;DHT22;64457;51.976;9.834;2023-08-06T06:46:15;30.80;72.80
75824;DHT22;64457;51.976;9.834;2023-08-06T06:48:44;30.10;77.20
75824;DHT22;64457;51.976;9.834;2023-08-06T06:51:11;31.60;73.60
75824;DHT22;64457;51.976;9.834;2023-08-06T06:53:39;32.90;68.80
75824;DHT22;64457;51.976;9.834;2023-08-06T06:56:10;31.90;68.30
75824;DHT22;64457;51.976;9.834;2023-08-06T06:58:38;32.80;68.00
75824;DHT22;64457;51.976;9.834;2023-08-06T07:01:07;34.40;64.80
75824;DHT22;64457;51.976;9.834;2023-08-06T07:03:36;33.00;61.50
75824;DHT22;64457;51.976;9.834;2023-08-06T07:06:06;31.80;64.50
75824;DHT22;64457;51.976;9.834;2023-08-06T07:08:34;30.80;67.50
75824;DHT22;64457;51.976;9.834;2023-08-06T07:11:02;31.50;68.40
75824;DHT22;64457;51.976;9.834;2023-08-06T07:13:31;32.80;63.90
75824;DHT22;64457;51.976;9.834;2023-08-06T07:15:59;32.20;64.80
75824;DHT22;64457;51.976;9.834;2023-08-06T07:18:27;33.30;64.40
75824;DHT22;64457;51.976;9.834;2023-08-06T07:20:55;33.90;60.00
75824;DHT22;64457;51.976;9.834;2023-08-06T07:23:25;35.00;60.30
75824;DHT22;64457;51.976;9.834;2023-08-06T07:25:54;35.20;58.50
75824;DHT22;64457;51.976;9.834;2023-08-06T07:28:22;34.30;59.20
75824;DHT22;64457;51.976;9.834;2023-08-06T07:30:50;35.50;58.80
75824;DHT22;64457;51.976;9.834;2023-08-06T07:33:20;33.30;58.30
75824;DHT22;64457;51.976;9.834;2023-08-06T07:35:48;33.00;60.90
75824;DHT22;64457;51.976;9.834;2023-08-06T07:38:16;32.30;59.90
75824;DHT22;64457;51.976;9.834;2023-08-06T07:40:45;31.90;63.60
75824;DHT22;64457;51.976;9.834;2023-08-06T07:43:13;33.30;60.60
75824;DHT22;64457;51.976;9.834;2023-08-06T07:45:41;31.80;64.50
75824;DHT22;64457;51.976;9.834;2023-08-06T07:48:08;33.30;61.30
75824;DHT22;64457;51.976;9.834;2023-08-06T07:50:36;33.10;62.70
75824;DHT22;64457;51.976;9.834;2023-08-06T07:53:05;33.30;59.10
75824;DHT22;64457;51.976;9.834;2023-08-06T07:55:33;31.50;63.50
75824;DHT22;64457;51.976;9.834;2023-08-06T07:58:02;32.10;62.20
75824;DHT22;64457;51.976;9.834;2023-08-06T08:00:32;33.10;60.30
75824;DHT22;64457;51.976;9.834;2023-08-06T08:02:59;32.50;62.30
75824;DHT22;64457;51.976;9.834;2023-08-06T08:05:27;33.80;61.40
75824;DHT22;64457;51.976;9.834;2023-08-06T08:07:54;33.90;57.60
75824;DHT22;64457;51.976;9.834;2023-08-06T08:10:22;32.80;58.70
75824;DHT22;64457;51.976;9.834;2023-08-06T08:12:50;30.30;62.90
75824;DHT22;64457;51.976;9.834;2023-08-06T08:15:19;31.10;66.30
75824;DHT22;64457;51.976;9.834;2023-08-06T08:17:47;31.70;63.60
75824;DHT22;64457;51.976;9.834;2023-08-06T08:20:16;33.10;61.00
75824;DHT22;64457;51.976;9.834;2023-08-06T08:22:45;34.30;59.50
75824;DHT22;64457;51.976;9.834;2023-08-06T08:25:13;34.50;55.90
75824;DHT22;64457;51.976;9.834;2023-08-06T08:27:41;32.20;60.10
75824;DHT22;64457;51.976;9.834;2023-08-06T08:30:09;30.90;63.60
75824;DHT22;64457;51.976;9.834;2023-08-06T08:32:38;30.00;65.90
75824;DHT22;64457;51.976;9.834;2023-08-06T08:35:06;30.30;66.70
75824;DHT22;64457;51.976;9.834;2023-08-06T08:37:34;30.20;67.00
75824;DHT22;64457;51.976;9.834;2023-08-06T08:40:02;30.90;63.00
75824;DHT22;64457;51.976;9.834;2023-08-06T08:42:31;31.50;64.10
75824;DHT22;64457;51.976;9.834;2023-08-06T08:44:59;31.00;60.70
75824;DHT22;64457;51.976;9.834;2023-08-06T08:47:27;30.10;67.40
75824;DHT22;64457;51.976;9.834;2023-08-06T08:49:57;30.60;64.70
75824;DHT22;64457;51.976;9.834;2023-08-06T08:52:27;31.20;63.40
75824;DHT22;64457;51.976;9.834;2023-08-06T08:54:56;30.90;64.10
75824;DHT22;64457;51.976;9.834;2023-08-06T08:57:25;30.40;64.70
75824;DHT22;64457;51.976;9.834;2023-08-06T08:59:53;29.00;67.70
75824;DHT22;64457;51.976;9.834;2023-08-06T09:02:21;28.30;67.50
75824;DHT22;64457;51.976;9.834;2023-08-06T09:04:51;27.70;71.90
75824;DHT22;64457;51.976;9.834;2023-08-06T09:07:22;27.30;72.40
75824;DHT22;64457;51.976;9.834;2023-08-06T09:09:52;28.80;71.60
75824;DHT22;64457;51.976;9.834;2023-08-06T09:12:22;29.90;67.70
75824;DHT22;64457;51.976;9.834;2023-08-06T09:14:50;29.90;66.80
75824;DHT22;64457;51.976;9.834;2023-08-06T09:17:21;29.90;67.80
75824;DHT22;64457;51.976;9.834;2023-08-06T09:19:49;30.40;68.10
75824;DHT22;64457;51.976;9.834;2023-08-06T09:22:17;30.60;63.70
75824;DHT22;64457;51.976;9.834;2023-08-06T09:24:46;29.60;69.10
75824;DHT22;64457;51.976;9.834;2023-08-06T09:27:14;30.10;68.20
75824;DHT22;64457;51.976;9.834;2023-08-06T09:29:43;30.70;66.50
75824;DHT22;64457;51.976;9.834;2023-08-06T09:32:11;31.20;64.90
75824;DHT22;64457;51.976;9.834;2023-08-06T09:34:42;31.20;65.80
75824;DHT22;64457;51.976;9.834;2023-08-06T09:37:10;31.30;63.30
75824;DHT22;64457;51.976;9.834;2023-08-06T09:39:39;30.30;65.60
75824;DHT22;64457;51.976;9.834;2023-08-06T09:42:09;30.10;66.50
75824;DHT22;64457;51.976;9.834;2023-08-06T09:44:40;30.00;64.10
75824;DHT22;64457;51.976;9.834;2023-08-06T09:47:08;28.80;66.40
75824;DHT22;64457;51.976;9.834;2023-08-06T09:49:43;28.40;69.70
75824;DHT22;64457;51.976;9.834;2023-08-06T09:52:13;28.40;68.80
75824;DHT22;64457;51.976;9.834;2023-08-06T09:54:43;28.80;67.30
75824;DHT22;64457;51.976;9.834;2023-08-06T09:57:14;28.40;67.70
75824;DHT22;64457;51.976;9.834;2023-08-06T09:59:43;28.30;68.30
75824;DHT22;64457;51.976;9.834;2023-08-06T10:02:14;28.40;69.40
75824;DHT22;64457;51.976;9.834;2023-08-06T10:04:44;28.30;68.00
75824;DHT22;64457;51.976;9.834;2023-08-06T10:07:13;28.20;70.10
75824;DHT22;64457;51.976;9.834;2023-08-06T10:09:43;28.10;70.70
75824;DHT22;64457;51.976;9.834;2023-08-06T10:12:10;28.00;71.30
75824;DHT22;64457;51.976;9.834;2023-08-06T10:14:41;27.10;72.10
75824;DHT22;64457;51.976;9.834;2023-08-06T10:17:10;26.70;72.90
75824;DHT22;64457;51.976;9.834;2023-08-06T10:19:38;26.70;73.50
75824;DHT22;64457;51.976;9.834;2023-08-06T10:22:09;26.70;72.50
75824;DHT22;64457;51.976;9.834;2023-08-06T10:24:49;27.00;73.30
75824;DHT22;64457;51.976;9.834;2023-08-06T10:27:29;27.20;72.70
75824;DHT22;64457;51.976;9.834;2023-08-06T10:30:22;27.30;71.90
75824;DHT22;64457;51.976;9.834;2023-08-06T10:32:52;27.40;68.20
75824;DHT22;64457;51.976;9.834;2023-08-06T10:35:30;27.40;68.40
75824;DHT22;64457;51.976;9.834;2023-08-06T10:38:02;27.40;72.60
75824;DHT22;64457;51.976;9.834;2023-08-06T10:40:31;27.50;68.90
75824;DHT22;64457;51.976;9.834;2023-08-06T10:43:02;27.30;67.00
75824;DHT22;64457;51.976;9.834;2023-08-06T10:45:34;27.80;69.00
75824;DHT22;64457;51.976;9.834;2023-08-06T10:48:03;28.10;69.50
75824;DHT22;64457;51.976;9.834;2023-08-06T10:50:31;28.70;68.20
75824;DHT22;64457;51.976;9.834;2023-08-06T10:53:04;28.90;70.70
75824;DHT22;64457;51.976;9.834;2023-08-06T10:55:33;28.40;71.50
75824;DHT22;64457;51.976;9.834;2023-08-06T10:58:02;28.00;73.30
75824;DHT22;64457;51.976;9.834;2023-08-06T11:00:30;27.40;72.70
75824;DHT22;64457;51.976;9.834;2023-08-06T11:02:57;26.90;75.50
75824;DHT22;64457;51.976;9.834;2023-08-06T11:05:25;26.40;77.30
75824;DHT22;64457;51.976;9.834;2023-08-06T11:07:53;26.30;78.40
75824;DHT22;64457;51.976;9.834;2023-08-06T11:10:20;26.50;78.00
75824;DHT22;64457;51.976;9.834;2023-08-06T11:12:48;26.60;76.90
75824;DHT22;64457;51.976;9.834;2023-08-06T11:15:19;26.60;76.00
75824;DHT22;64457;51.976;9.834;2023-08-06T11:17:47;26.50;78.40
75824;DHT22;64457;51.976;9.834;2023-08-06T11:20:15;26.40;77.90
75824;DHT22;64457;51.976;9.834;2023-08-06T11:22:43;26.20;78.00
75824;DHT22;64457;51.976;9.834;2023-08-06T11:25:12;26.10;78.50
75824;DHT22;64457;51.976;9.834;2023-08-06T11:27:40;26.10;78.80
75824;DHT22;64457;51.976;9.834;2023-08-06T11:30:10;26.20;76.40
75824;DHT22;64457;51.976;9.834;2023-08-06T11:32:46;26.40;77.80
75824;DHT22;64457;51.976;9.834;2023-08-06T11:35:15;26.50;79.90
75824;DHT22;64457;51.976;9.834;2023-08-06T11:37:45;26.60;75.80
75824;DHT22;64457;51.976;9.834;2023-08-06T11:40:15;26.20;77.40
75824;DHT22;64457;51.976;9.834;2023-08-06T11:42:42;26.20;78.20
75824;DHT22;64457;51.976;9.834;2023-08-06T11:45:12;26.80;77.30
75824;DHT22;64457;51.976;9.834;2023-08-06T11:47:40;27.10;75.10
75824;DHT22;64457;51.976;9.834;2023-08-06T11:50:22;26.90;71.50
75824;DHT22;64457;51.976;9.834;2023-08-06T11:52:53;27.10;75.80
75824;DHT22;64457;51.976;9.834;2023-08-06T11:55:23;27.90;75.50
75824;DHT22;64457;51.976;9.834;2023-08-06T11:57:52;28.00;74.10
75824;DHT22;64457;51.976;9.834;2023-08-06T12:00:22;27.80;75.10
75824;DHT22;64457;51.976;9.834;2023-08-06T12:02:51;28.10;75.60
75824;DHT22;64457;51.976;9.834;2023-08-06T12:05:23;27.50;72.30
75824;DHT22;64457;51.976;9.834;2023-08-06T12:07:52;27.20;73.70
75824;DHT22;64457;51.976;9.834;2023-08-06T12:10:21;26.20;73.90
75824;DHT22;64457;51.976;9.834;2023-08-06T12:12:51;26.40;73.90
75824;DHT22;64457;51.976;9.834;2023-08-06T12:15:18;26.00;75.80
75824;DHT22;64457;51.976;9.834;2023-08-06T12:17:46;26.40;77.00
75824;DHT22;64457;51.976;9.834;2023-08-06T12:20:14;26.70;73.70
75824;DHT22;64457;51.976;9.834;2023-08-06T12:22:43;27.00;73.90
75824;DHT22;64457;51.976;9.834;2023-08-06T12:25:12;27.10;74.70
75824;DHT22;64457;51.976;9.834;2023-08-06T12:27:40;27.20;74.50
75824;DHT22;64457;51.976;9.834;2023-08-06T12:30:10;27.20;74.60
75824;DHT22;64457;51.976;9.834;2023-08-06T12:32:38;27.20;72.90
75824;DHT22;64457;51.976;9.834;2023-08-06T12:35:07;27.10;74.70
75824;DHT22;64457;51.976;9.834;2023-08-06T12:37:35;27.30;74.80
75824;DHT22;64457;51.976;9.834;2023-08-06T12:40:07;27.40;73.60
75824;DHT22;64457;51.976;9.834;2023-08-06T12:42:35;27.40;73.80
75824;DHT22;64457;51.976;9.834;2023-08-06T12:45:03;27.50;73.10
75824;DHT22;64457;51.976;9.834;2023-08-06T12:47:31;27.40;71.50
75824;DHT22;64457;51.976;9.834;2023-08-06T12:49:58;27.10;74.20
75824;DHT22;64457;51.976;9.834;2023-08-06T12:52:26;27.10;73.00
75824;DHT22;64457;51.976;9.834;2023-08-06T12:54:54;26.90;74.10
75824;DHT22;64457;51.976;9.834;2023-08-06T12:57:23;26.60;72.80
75824;DHT22;64457;51.976;9.834;2023-08-06T12:59:51;26.50;74.60
75824;DHT22;64457;51.976;9.834;2023-08-06T13:02:18;26.30;76.10
75824;DHT22;64457;51.976;9.834;2023-08-06T13:04:46;25.70;80.60
75824;DHT22;64457;51.976;9.834;2023-08-06T13:07:14;25.60;82.20
75824;DHT22;64457;51.976;9.834;2023-08-06T13:09:42;25.80;82.30
75824;DHT22;64457;51.976;9.834;2023-08-06T13:12:10;24.70;83.10
75824;DHT22;64457;51.976;9.834;2023-08-06T13:14:40;24.50;83.90
75824;DHT22;64457;51.976;9.834;2023-08-06T13:17:07;24.80;85.60
75824;DHT22;64457;51.976;9.834;2023-08-06T13:19:35;24.90;83.10
75824;DHT22;64457;51.976;9.834;2023-08-06T13:22:03;24.30;83.90
75824;DHT22;64457;51.976;9.834;2023-08-06T13:24:34;24.50;86.00
75824;DHT22;64457;51.976;9.834;2023-08-06T13:27:01;24.80;85.40
75824;DHT22;64457;51.976;9.834;2023-08-06T13:29:30;25.30;86.00
75824;DHT22;64457;51.976;9.834;2023-08-06T13:31:59;25.70;83.90
75824;DHT22;64457;51.976;9.834;2023-08-06T13:34:27;25.90;81.80
75824;DHT22;64457;51.976;9.834;2023-08-06T13:36:55;26.10;82.80
75824;DHT22;64457;51.976;9.834;2023-08-06T13:39:23;26.50;81.60
75824;DHT22;64457;51.976;9.834;2023-08-06T13:41:51;26.90;80.90
75824;DHT22;64457;51.976;9.834;2023-08-06T13:44:18;27.10;79.10
75824;DHT22;64457;51.976;9.834;2023-08-06T13:46:46;26.90;79.60
75824;DHT22;64457;51.976;9.834;2023-08-06T13:49:16;27.00;78.60
75824;DHT22;64457;51.976;9.834;2023-08-06T13:51:43;27.20;77.10
75824;DHT22;64457;51.976;9.834;2023-08-06T13:54:11;27.40;77.70
75824;DHT22;64457;51.976;9.834;2023-08-06T13:56:39;27.50;78.50
75824;DHT22;64457;51.976;9.834;2023-08-06T13:59:07;27.60;79.30
75824;DHT22;64457;51.976;9.834;2023-08-06T14:01:34;27.50;78.80
75824;DHT22;64457;51.976;9.834;2023-08-06T14:04:03;27.20;74.80
75824;DHT22;64457;51.976;9.834;2023-08-06T14:06:32;27.30;77.20
75824;DHT22;64457;51.976;9.834;2023-08-06T14:09:00;26.90;75.80
75824;DHT22;64457;51.976;9.834;2023-08-06T14:11:28;26.80;75.20
75824;DHT22;64457;51.976;9.834;2023-08-06T14:13:56;26.90;74.60
75824;DHT22;64457;51.976;9.834;2023-08-06T14:16:24;27.10;74.20
75824;DHT22;64457;51.976;9.834;2023-08-06T14:18:52;27.10;73.80
75824;DHT22;64457;51.976;9.834;2023-08-06T14:21:19;27.20;74.70
75824;DHT22;64457;51.976;9.834;2023-08-06T14:23:49;27.30;72.00
75824;DHT22;64457;51.976;9.834;2023-08-06T14:26:17;27.10;72.20
75824;DHT22;64457;51.976;9.834;2023-08-06T14:28:45;26.80;74.60
75824;DHT22;64457;51.976;9.834;2023-08-06T14:31:12;26.60;75.90
75824;DHT22;64457;51.976;9.834;2023-08-06T14:33:40;26.60;75.00
75824;DHT22;64457;51.976;9.834;2023-08-06T14:36:08;26.70;76.50
75824;DHT22;64457;51.976;9.834;2023-08-06T14:38:36;26.70;76.30
75824;DHT22;64457;51.976;9.834;2023-08-06T14:41:05;26.80;74.10
75824;DHT22;64457;51.976;9.834;2023-08-06T14:43:33;26.70;75.10
75824;DHT22;64457;51.976;9.834;2023-08-06T14:46:01;26.70;74.10
75824;DHT22;64457;51.976;9.834;2023-08-06T14:48:29;26.40;75.30
75824;DHT22;64457;51.976;9.834;2023-08-06T14:50:57;26.40;75.90
75824;DHT22;64457;51.976;9.834;2023-08-06T14:53:26;26.30;75.40
75824;DHT22;64457;51.976;9.834;2023-08-06T14:55:54;26.00;75.70
75824;DHT22;64457;51.976;9.834;2023-08-06T14:58:23;25.90;77.80
75824;DHT22;64457;51.976;9.834;2023-08-06T15:00:51;25.80;76.50
75824;DHT22;64457;51.976;9.834;2023-08-06T15:03:18;25.80;77.50
75824;DHT22;64457;51.976;9.834;2023-08-06T15:05:47;26.00;75.80
75824;DHT22;64457;51.976;9.834;2023-08-06T15:08:16;26.10;76.50
75824;DHT22;64457;51.976;9.834;2023-08-06T15:10:50;26.20;75.80
75824;DHT22;64457;51.976;9.834;2023-08-06T15:13:19;26.60;75.20
75824;DHT22;64457;51.976;9.834;2023-08-06T15:15:50;26.70;74.00
75824;DHT22;64457;51.976;9.834;2023-08-06T15:18:18;26.60;73.90
75824;DHT22;64457;51.976;9.834;2023-08-06T15:20:46;26.70;74.00
75824;DHT22;64457;51.976;9.834;2023-08-06T15:23:14;26.70;71.80
75824;DHT22;64457;51.976;9.834;2023-08-06T15:25:41;26.60;70.10
75824;DHT22;64457;51.976;9.834;2023-08-06T15:28:09;26.40;69.50
75824;DHT22;64457;51.976;9.834;2023-08-06T15:30:38;26.50;70.30
75824;DHT22;64457;51.976;9.834;2023-08-06T15:33:07;26.40;70.00
75824;DHT22;64457;51.976;9.834;2023-08-06T15:35:34;26.40;71.90
75824;DHT22;64457;51.976;9.834;2023-08-06T15:38:02;26.50;70.20